sensor_id;sensor_type;location;lat;lon;timestamp;pressure;altitude;pressure_sealevel;temperature;humidity
48244;BME280;34053;51.088;6.572;2023-07-31T00:02:05;100612.41;;;17.72;83.21
48244;BME280;34053;51.088;6.572;2023-07-31T00:04:56;100609.50;;;17.60;83.69
48244;BME280;34053;51.088;6.572;2023-07-31T00:07:47;100603.69;;;17.84;82.19
48244;BME280;34053;51.088;6.572;2023-07-31T00:10:38;100612.97;;;17.77;82.09
48244;BME280;34053;51.088;6.572;2023-07-31T00:13:29;100599.81;;;17.75;82.09
48244;BME280;34053;51.088;6.572;2023-07-31T00:16:19;100607.66;;;17.77;82.45
48244;BME280;34053;51.088;6.572;2023-07-31T00:19:10;100611.28;;;17.90;81.66
48244;BME280;34053;51.088;6.572;2023-07-31T00:22:01;100604.06;;;17.78;81.24
48244;BME280;34053;51.088;6.572;2023-07-31T00:24:52;100614.56;;;17.80;81.64
48244;BME280;34053;51.088;6.572;2023-07-31T00:27:43;100603.13;;;17.79;81.76
48244;BME280;34053;51.088;6.572;2023-07-31T00:30:35;100596.00;;;17.96;80.72
48244;BME280;34053;51.088;6.572;2023-07-31T00:33:25;100605.53;;;17.68;81.39
48244;BME280;34053;51.088;6.572;2023-07-31T00:36:16;100596.59;;;17.85;80.84
48244;BME280;34053;51.088;6.572;2023-07-31T00:39:08;100602.34;;;17.77;81.08
48244;BME280;34053;51.088;6.572;2023-07-31T00:41:59;100602.34;;;17.77;81.02
48244;BME280;34053;51.088;6.572;2023-07-31T00:44:50;100594.91;;;17.84;80.71
48244;BME280;34053;51.088;6.572;2023-07-31T00:47:40;100604.69;;;17.98;79.74
48244;BME280;34053;51.088;6.572;2023-07-31T00:50:32;100593.94;;;17.85;80.20
48244;BME280;34053;51.088;6.572;2023-07-31T00:53:24;100589.38;;;17.87;79.72
48244;BME280;34053;51.088;6.572;2023-07-31T00:56:15;100599.56;;;17.64;80.57
48244;BME280;34053;51.088;6.572;2023-07-31T00:59:06;100585.53;;;17.62;80.74
48244;BME280;34053;51.088;6.572;2023-07-31T01:01:57;100584.16;;;17.71;80.07
48244;BME280;34053;51.088;6.572;2023-07-31T01:04:48;100580.06;;;17.65;80.28
48244;BME280;34053;51.088;6.572;2023-07-31T01:08:04;100582.81;;;17.64;79.88
48244;BME280;34053;51.088;6.572;2023-07-31T01:11:02;100578.31;;;17.80;79.24
48244;BME280;34053;51.088;6.572;2023-07-31T01:13:57;100575.91;;;17.75;79.32
48244;BME280;34053;51.088;6.572;2023-07-31T01:16:48;100576.09;;;17.72;78.87
48244;BME280;34053;51.088;6.572;2023-07-31T01:19:38;100577.50;;;17.64;79.19
48244;BME280;34053;51.088;6.572;2023-07-31T01:22:32;100575.38;;;17.54;79.25
48244;BME280;34053;51.088;6.572;2023-07-31T01:31:49;100571.63;;;17.73;78.59
48244;BME280;34053;51.088;6.572;2023-07-31T01:34:41;100584.69;;;17.61;78.94
48244;BME280;34053;51.088;6.572;2023-07-31T01:37:32;100579.78;;;17.70;78.62
48244;BME280;34053;51.088;6.572;2023-07-31T01:40:23;100578.47;;;17.77;78.42
48244;BME280;34053;51.088;6.572;2023-07-31T01:43:13;100572.00;;;17.67;78.84
48244;BME280;34053;51.088;6.572;2023-07-31T01:46:04;100566.13;;;17.61;79.16
48244;BME280;34053;51.088;6.572;2023-07-31T01:48:55;100556.88;;;17.53;79.64
48244;BME280;34053;51.088;6.572;2023-07-31T01:51:46;100568.78;;;17.61;79.62
48244;BME280;34053;51.088;6.572;2023-07-31T01:54:36;100564.00;;;17.52;80.23
48244;BME280;34053;51.088;6.572;2023-07-31T01:57:27;100561.19;;;17.55;80.06
48244;BME280;34053;51.088;6.572;2023-07-31T02:00:18;100553.28;;;17.54;80.31
48244;BME280;34053;51.088;6.572;2023-07-31T02:03:09;100553.75;;;17.46;80.20
48244;BME280;34053;51.088;6.572;2023-07-31T02:06:00;100554.97;;;17.71;79.65
48244;BME280;34053;51.088;6.572;2023-07-31T02:08:51;100550.69;;;17.68;79.56
48244;BME280;34053;51.088;6.572;2023-07-31T02:11:41;100543.75;;;17.66;79.96
48244;BME280;34053;51.088;6.572;2023-07-31T02:14:32;100547.94;;;17.70;80.11
48244;BME280;34053;51.088;6.572;2023-07-31T02:17:23;100541.88;;;17.68;80.26
48244;BME280;34053;51.088;6.572;2023-07-31T02:20:14;100543.59;;;17.69;80.52
48244;BME280;34053;51.088;6.572;2023-07-31T02:23:05;100538.44;;;17.66;80.66
48244;BME280;34053;51.088;6.572;2023-07-31T02:25:55;100548.88;;;17.69;80.72
48244;BME280;34053;51.088;6.572;2023-07-31T02:28:46;100538.84;;;17.74;80.58
48244;BME280;34053;51.088;6.572;2023-07-31T02:31:37;100545.47;;;17.81;80.04
48244;BME280;34053;51.088;6.572;2023-07-31T02:34:28;100547.47;;;17.77;80.47
48244;BME280;34053;51.088;6.572;2023-07-31T02:37:19;100539.06;;;17.85;80.19
48244;BME280;34053;51.088;6.572;2023-07-31T02:40:10;100540.66;;;17.73;80.68
48244;BME280;34053;51.088;6.572;2023-07-31T02:43:01;100530.75;;;17.61;81.22
48244;BME280;34053;51.088;6.572;2023-07-31T02:45:52;100540.53;;;17.60;81.30
48244;BME280;34053;51.088;6.572;2023-07-31T02:48:43;100528.59;;;17.68;81.15
48244;BME280;34053;51.088;6.572;2023-07-31T02:51:34;100534.09;;;17.65;81.49
48244;BME280;34053;51.088;6.572;2023-07-31T02:54:24;100523.56;;;17.63;81.25
48244;BME280;34053;51.088;6.572;2023-07-31T02:57:15;100517.59;;;17.59;81.36
48244;BME280;34053;51.088;6.572;2023-07-31T03:00:07;100517.97;;;17.53;81.70
48244;BME280;34053;51.088;6.572;2023-07-31T03:02:58;100508.13;;;17.55;82.02
48244;BME280;34053;51.088;6.572;2023-07-31T03:05:48;100510.13;;;17.52;81.93
48244;BME280;34053;51.088;6.572;2023-07-31T03:08:39;100507.75;;;17.61;81.55
48244;BME280;34053;51.088;6.572;2023-07-31T03:11:31;100511.34;;;17.60;81.16
48244;BME280;34053;51.088;6.572;2023-07-31T03:14:22;100506.22;;;17.57;81.78
48244;BME280;34053;51.088;6.572;2023-07-31T03:17:13;100513.63;;;17.67;81.40
48244;BME280;34053;51.088;6.572;2023-07-31T03:20:04;100504.81;;;17.66;81.49
48244;BME280;34053;51.088;6.572;2023-07-31T03:22:54;100509.53;;;17.61;81.86
48244;BME280;34053;51.088;6.572;2023-07-31T03:25:58;100510.59;;;17.58;82.73
48244;BME280;34053;51.088;6.572;2023-07-31T03:28:50;100508.16;;;17.70;82.50
48244;BME280;34053;51.088;6.572;2023-07-31T03:31:40;100509.75;;;17.58;82.82
48244;BME280;34053;51.088;6.572;2023-07-31T03:34:31;100504.91;;;17.65;82.74
48244;BME280;34053;51.088;6.572;2023-07-31T03:37:22;100501.31;;;17.66;82.31
48244;BME280;34053;51.088;6.572;2023-07-31T03:40:13;100502.75;;;17.71;81.79
48244;BME280;34053;51.088;6.572;2023-07-31T03:43:04;100496.31;;;17.75;81.47
48244;BME280;34053;51.088;6.572;2023-07-31T03:45:55;100486.91;;;17.70;81.77
48244;BME280;34053;51.088;6.572;2023-07-31T03:48:46;100493.56;;;17.62;81.84
48244;BME280;34053;51.088;6.572;2023-07-31T03:51:37;100487.66;;;17.57;82.08
48244;BME280;34053;51.088;6.572;2023-07-31T03:54:28;100485.09;;;17.70;81.33
48244;BME280;34053;51.088;6.572;2023-07-31T03:57:18;100481.13;;;17.63;81.45
48244;BME280;34053;51.088;6.572;2023-07-31T04:00:10;100483.41;;;17.69;81.95
48244;BME280;34053;51.088;6.572;2023-07-31T04:03:01;100473.38;;;17.74;81.60
48244;BME280;34053;51.088;6.572;2023-07-31T04:05:54;100474.59;;;17.69;81.83
48244;BME280;34053;51.088;6.572;2023-07-31T04:08:45;100479.41;;;17.62;82.61
48244;BME280;34053;51.088;6.572;2023-07-31T04:11:35;100469.94;;;17.58;82.87
48244;BME280;34053;51.088;6.572;2023-07-31T04:14:26;100460.78;;;17.64;82.69
48244;BME280;34053;51.088;6.572;2023-07-31T04:17:17;100459.25;;;17.74;82.24
48244;BME280;34053;51.088;6.572;2023-07-31T04:20:09;100467.03;;;17.77;81.98
48244;BME280;34053;51.088;6.572;2023-07-31T04:23:00;100460.50;;;17.83;81.54
48244;BME280;34053;51.088;6.572;2023-07-31T04:25:50;100463.03;;;17.84;81.31
48244;BME280;34053;51.088;6.572;2023-07-31T04:28:41;100455.94;;;17.85;81.13
48244;BME280;34053;51.088;6.572;2023-07-31T04:31:33;100461.31;;;17.83;81.50
48244;BME280;34053;51.088;6.572;2023-07-31T04:34:24;100456.22;;;17.94;79.99
48244;BME280;34053;51.088;6.572;2023-07-31T04:37:15;100460.00;;;17.90;80.88
48244;BME280;34053;51.088;6.572;2023-07-31T04:40:06;100457.06;;;17.81;81.38
48244;BME280;34053;51.088;6.572;2023-07-31T04:42:57;100446.72;;;17.90;80.78
48244;BME280;34053;51.088;6.572;2023-07-31T04:45:48;100448.38;;;17.93;81.31
48244;BME280;34053;51.088;6.572;2023-07-31T04:48:39;100446.13;;;18.01;80.21
48244;BME280;34053;51.088;6.572;2023-07-31T04:51:29;100449.50;;;17.89;80.52
48244;BME280;34053;51.088;6.572;2023-07-31T04:54:20;100446.94;;;17.87;80.55
48244;BME280;34053;51.088;6.572;2023-07-31T04:57:11;100447.78;;;17.88;80.46
48244;BME280;34053;51.088;6.572;2023-07-31T05:00:02;100429.78;;;17.93;80.00
48244;BME280;34053;51.088;6.572;2023-07-31T05:02:53;100428.75;;;17.96;80.09
48244;BME280;34053;51.088;6.572;2023-07-31T05:05:44;100425.13;;;18.11;79.37
48244;BME280;34053;51.088;6.572;2023-07-31T05:08:34;100430.22;;;18.14;79.43
48244;BME280;34053;51.088;6.572;2023-07-31T05:11:25;100415.56;;;18.08;79.76
48244;BME280;34053;51.088;6.572;2023-07-31T05:14:16;100419.44;;;18.17;78.96
48244;BME280;34053;51.088;6.572;2023-07-31T05:17:07;100411.94;;;18.24;78.99
48244;BME280;34053;51.088;6.572;2023-07-31T05:19:57;100406.16;;;18.17;79.20
48244;BME280;34053;51.088;6.572;2023-07-31T05:22:48;100405.97;;;18.20;79.09
48244;BME280;34053;51.088;6.572;2023-07-31T05:25:39;100402.44;;;18.34;78.30
48244;BME280;34053;51.088;6.572;2023-07-31T05:28:30;100400.50;;;18.36;78.13
48244;BME280;34053;51.088;6.572;2023-07-31T05:31:20;100388.97;;;18.23;78.39
48244;BME280;34053;51.088;6.572;2023-07-31T05:34:12;100387.44;;;18.33;78.32
48244;BME280;34053;51.088;6.572;2023-07-31T05:37:04;100366.72;;;18.38;78.10
48244;BME280;34053;51.088;6.572;2023-07-31T05:39:55;100373.16;;;18.49;77.21
48244;BME280;34053;51.088;6.572;2023-07-31T05:42:46;100373.22;;;18.34;78.00
48244;BME280;34053;51.088;6.572;2023-07-31T05:45:36;100375.00;;;18.34;77.96
48244;BME280;34053;51.088;6.572;2023-07-31T05:48:27;100379.84;;;18.27;78.45
48244;BME280;34053;51.088;6.572;2023-07-31T05:51:18;100380.72;;;18.55;77.28
48244;BME280;34053;51.088;6.572;2023-07-31T05:54:09;100376.09;;;18.44;78.71
48244;BME280;34053;51.088;6.572;2023-07-31T05:56:59;100378.31;;;18.37;79.43
48244;BME280;34053;51.088;6.572;2023-07-31T05:59:50;100367.97;;;18.33;79.38
48244;BME280;34053;51.088;6.572;2023-07-31T06:02:41;100367.56;;;18.39;79.65
48244;BME280;34053;51.088;6.572;2023-07-31T06:05:32;100367.19;;;18.45;79.60
48244;BME280;34053;51.088;6.572;2023-07-31T06:08:22;100374.22;;;18.46;79.29
48244;BME280;34053;51.088;6.572;2023-07-31T06:11:13;100370.44;;;18.36;79.64
48244;BME280;34053;51.088;6.572;2023-07-31T06:14:04;100367.56;;;18.39;79.37
48244;BME280;34053;51.088;6.572;2023-07-31T06:16:55;100364.50;;;18.32;79.90
48244;BME280;34053;51.088;6.572;2023-07-31T06:19:45;100362.94;;;18.43;79.90
48244;BME280;34053;51.088;6.572;2023-07-31T06:22:36;100364.97;;;18.24;80.48
48244;BME280;34053;51.088;6.572;2023-07-31T06:25:27;100363.88;;;18.42;79.90
48244;BME280;34053;51.088;6.572;2023-07-31T06:28:18;100363.31;;;18.36;80.10
48244;BME280;34053;51.088;6.572;2023-07-31T06:31:09;100370.69;;;18.18;80.34
48244;BME280;34053;51.088;6.572;2023-07-31T06:34:00;100383.13;;;18.18;80.96
48244;BME280;34053;51.088;6.572;2023-07-31T06:36:51;100381.66;;;18.27;80.41
48244;BME280;34053;51.088;6.572;2023-07-31T06:39:42;100372.19;;;18.22;80.84
48244;BME280;34053;51.088;6.572;2023-07-31T06:42:32;100371.59;;;18.32;80.28
48244;BME280;34053;51.088;6.572;2023-07-31T06:45:23;100374.25;;;18.32;80.19
48244;BME280;34053;51.088;6.572;2023-07-31T06:48:14;100368.25;;;18.43;79.70
48244;BME280;34053;51.088;6.572;2023-07-31T06:51:05;100370.84;;;18.30;80.24
48244;BME280;34053;51.088;6.572;2023-07-31T06:53:56;100367.16;;;18.32;79.98
48244;BME280;34053;51.088;6.572;2023-07-31T06:56:46;100360.25;;;18.15;80.56
48244;BME280;34053;51.088;6.572;2023-07-31T06:59:37;100358.72;;;18.25;80.66
48244;BME280;34053;51.088;6.572;2023-07-31T07:02:28;100366.28;;;18.32;79.72
48244;BME280;34053;51.088;6.572;2023-07-31T07:05:19;100372.41;;;18.19;80.09
48244;BME280;34053;51.088;6.572;2023-07-31T07:08:10;100372.75;;;18.28;80.77
48244;BME280;34053;51.088;6.572;2023-07-31T07:11:01;100361.53;;;18.09;80.88
48244;BME280;34053;51.088;6.572;2023-07-31T07:13:52;100363.13;;;18.12;80.43
48244;BME280;34053;51.088;6.572;2023-07-31T07:16:42;100366.44;;;18.16;81.51
48244;BME280;34053;51.088;6.572;2023-07-31T07:19:33;100367.97;;;18.05;82.68
48244;BME280;34053;51.088;6.572;2023-07-31T07:22:24;100359.25;;;18.03;82.96
48244;BME280;34053;51.088;6.572;2023-07-31T07:25:16;100362.66;;;18.05;83.22
48244;BME280;34053;51.088;6.572;2023-07-31T07:28:07;100363.31;;;17.94;83.55
48244;BME280;34053;51.088;6.572;2023-07-31T07:30:57;100364.84;;;17.99;83.60
48244;BME280;34053;51.088;6.572;2023-07-31T07:33:48;100364.66;;;17.73;84.85
48244;BME280;34053;51.088;6.572;2023-07-31T07:36:39;100360.22;;;17.73;84.90
48244;BME280;34053;51.088;6.572;2023-07-31T07:39:30;100362.69;;;17.76;85.34
48244;BME280;34053;51.088;6.572;2023-07-31T07:42:21;100365.72;;;17.56;84.68
48244;BME280;34053;51.088;6.572;2023-07-31T07:45:12;100367.16;;;17.61;84.76
48244;BME280;34053;51.088;6.572;2023-07-31T07:48:03;100369.16;;;17.58;86.17
48244;BME280;34053;51.088;6.572;2023-07-31T07:50:54;100361.47;;;17.68;86.27
48244;BME280;34053;51.088;6.572;2023-07-31T07:53:45;100360.78;;;17.78;85.61
48244;BME280;34053;51.088;6.572;2023-07-31T07:56:35;100352.16;;;17.75;86.05
48244;BME280;34053;51.088;6.572;2023-07-31T07:59:26;100358.41;;;17.74;85.71
48244;BME280;34053;51.088;6.572;2023-07-31T08:02:17;100349.88;;;17.83;85.53
48244;BME280;34053;51.088;6.572;2023-07-31T08:05:08;100347.81;;;17.88;84.72
48244;BME280;34053;51.088;6.572;2023-07-31T08:07:59;100345.03;;;17.90;84.44
48244;BME280;34053;51.088;6.572;2023-07-31T08:10:50;100335.88;;;17.67;84.97
48244;BME280;34053;51.088;6.572;2023-07-31T08:13:41;100340.13;;;17.69;85.04
48244;BME280;34053;51.088;6.572;2023-07-31T08:16:32;100329.53;;;17.55;85.44
48244;BME280;34053;51.088;6.572;2023-07-31T08:19:22;100330.69;;;17.36;86.20
48244;BME280;34053;51.088;6.572;2023-07-31T08:22:13;100332.69;;;17.47;85.89
48244;BME280;34053;51.088;6.572;2023-07-31T08:25:05;100333.13;;;17.54;86.56
48244;BME280;34053;51.088;6.572;2023-07-31T08:27:57;100314.50;;;17.55;86.40
48244;BME280;34053;51.088;6.572;2023-07-31T08:30:48;100328.78;;;17.67;86.26
48244;BME280;34053;51.088;6.572;2023-07-31T08:33:39;100322.97;;;17.75;85.41
48244;BME280;34053;51.088;6.572;2023-07-31T08:36:30;100322.59;;;17.67;85.06
48244;BME280;34053;51.088;6.572;2023-07-31T08:39:21;100323.66;;;17.64;85.10
48244;BME280;34053;51.088;6.572;2023-07-31T08:42:12;100320.53;;;17.72;85.32
48244;BME280;34053;51.088;6.572;2023-07-31T08:45:03;100320.66;;;17.98;83.63
48244;BME280;34053;51.088;6.572;2023-07-31T08:47:55;100325.81;;;17.86;83.92
48244;BME280;34053;51.088;6.572;2023-07-31T08:50:46;100318.50;;;17.90;84.38
48244;BME280;34053;51.088;6.572;2023-07-31T08:53:37;100315.22;;;17.72;84.37
48244;BME280;34053;51.088;6.572;2023-07-31T08:56:28;100333.03;;;17.70;85.95
48244;BME280;34053;51.088;6.572;2023-07-31T08:59:19;100324.91;;;17.58;85.42
48244;BME280;34053;51.088;6.572;2023-07-31T09:02:13;100332.47;;;17.79;84.71
48244;BME280;34053;51.088;6.572;2023-07-31T09:05:06;100325.22;;;17.81;84.95
48244;BME280;34053;51.088;6.572;2023-07-31T09:07:58;100331.13;;;17.86;84.96
48244;BME280;34053;51.088;6.572;2023-07-31T09:10:49;100322.38;;;17.99;84.12
48244;BME280;34053;51.088;6.572;2023-07-31T09:13:42;100323.63;;;17.78;84.29
48244;BME280;34053;51.088;6.572;2023-07-31T09:16:33;100327.91;;;17.96;84.17
48244;BME280;34053;51.088;6.572;2023-07-31T09:19:26;100318.88;;;17.98;84.09
48244;BME280;34053;51.088;6.572;2023-07-31T09:22:31;100312.81;;;17.96;84.60
48244;BME280;34053;51.088;6.572;2023-07-31T09:25:24;100313.69;;;17.97;83.89
48244;BME280;34053;51.088;6.572;2023-07-31T09:28:16;100308.28;;;17.98;83.35
48244;BME280;34053;51.088;6.572;2023-07-31T09:31:06;100299.28;;;17.86;84.50
48244;BME280;34053;51.088;6.572;2023-07-31T09:33:57;100319.00;;;17.97;83.62
48244;BME280;34053;51.088;6.572;2023-07-31T09:36:49;100308.72;;;17.90;84.84
48244;BME280;34053;51.088;6.572;2023-07-31T09:39:47;100298.91;;;17.78;85.13
48244;BME280;34053;51.088;6.572;2023-07-31T09:42:38;100299.25;;;18.01;84.14
48244;BME280;34053;51.088;6.572;2023-07-31T09:45:30;100296.41;;;18.04;84.45
48244;BME280;34053;51.088;6.572;2023-07-31T09:48:23;100291.00;;;18.05;84.97
48244;BME280;34053;51.088;6.572;2023-07-31T09:51:17;100301.13;;;18.13;84.54
48244;BME280;34053;51.088;6.572;2023-07-31T09:54:15;100297.47;;;18.01;86.36
48244;BME280;34053;51.088;6.572;2023-07-31T09:57:07;100291.81;;;18.06;85.65
48244;BME280;34053;51.088;6.572;2023-07-31T09:59:59;100288.03;;;18.10;85.76
48244;BME280;34053;51.088;6.572;2023-07-31T10:02:51;100295.91;;;17.70;87.98
48244;BME280;34053;51.088;6.572;2023-07-31T10:05:46;100287.28;;;17.66;89.88
48244;BME280;34053;51.088;6.572;2023-07-31T10:08:41;100293.59;;;17.78;89.40
48244;BME280;34053;51.088;6.572;2023-07-31T10:11:56;100294.56;;;17.77;88.85
48244;BME280;34053;51.088;6.572;2023-07-31T10:14:50;100285.28;;;17.70;89.11
48244;BME280;34053;51.088;6.572;2023-07-31T10:17:43;100293.78;;;17.75;88.05
48244;BME280;34053;51.088;6.572;2023-07-31T10:20:35;100284.47;;;17.82;86.99
48244;BME280;34053;51.088;6.572;2023-07-31T10:23:27;100289.13;;;17.78;87.80
48244;BME280;34053;51.088;6.572;2023-07-31T10:26:19;100285.78;;;17.89;87.05
48244;BME280;34053;51.088;6.572;2023-07-31T10:29:10;100286.47;;;17.93;87.58
48244;BME280;34053;51.088;6.572;2023-07-31T10:32:03;100282.38;;;18.02;86.77
48244;BME280;34053;51.088;6.572;2023-07-31T10:34:57;100283.50;;;17.98;86.20
48244;BME280;34053;51.088;6.572;2023-07-31T10:37:48;100290.44;;;18.00;86.56
48244;BME280;34053;51.088;6.572;2023-07-31T10:40:39;100290.16;;;18.05;86.59
48244;BME280;34053;51.088;6.572;2023-07-31T10:43:32;100287.19;;;18.09;85.13
48244;BME280;34053;51.088;6.572;2023-07-31T10:46:23;100288.56;;;18.15;85.73
48244;BME280;34053;51.088;6.572;2023-07-31T10:49:20;100275.28;;;18.15;85.11
48244;BME280;34053;51.088;6.572;2023-07-31T10:52:12;100280.22;;;18.21;84.75
48244;BME280;34053;51.088;6.572;2023-07-31T10:55:23;100270.34;;;18.23;83.74
48244;BME280;34053;51.088;6.572;2023-07-31T10:58:18;100268.44;;;18.25;83.55
48244;BME280;34053;51.088;6.572;2023-07-31T11:01:09;100263.75;;;18.29;84.76
48244;BME280;34053;51.088;6.572;2023-07-31T11:04:10;100252.97;;;18.45;83.13
48244;BME280;34053;51.088;6.572;2023-07-31T11:07:02;100248.81;;;18.54;83.23
48244;BME280;34053;51.088;6.572;2023-07-31T11:09:53;100255.88;;;18.68;83.28
48244;BME280;34053;51.088;6.572;2023-07-31T11:12:47;100251.09;;;18.99;82.01
48244;BME280;34053;51.088;6.572;2023-07-31T11:15:38;100254.69;;;19.11;80.22
48244;BME280;34053;51.088;6.572;2023-07-31T11:18:29;100258.22;;;19.24;79.70
48244;BME280;34053;51.088;6.572;2023-07-31T11:21:22;100251.94;;;19.25;79.08
48244;BME280;34053;51.088;6.572;2023-07-31T11:24:13;100259.22;;;19.34;77.55
48244;BME280;34053;51.088;6.572;2023-07-31T11:27:07;100255.22;;;19.29;77.43
48244;BME280;34053;51.088;6.572;2023-07-31T11:30:02;100268.91;;;19.35;78.48
48244;BME280;34053;51.088;6.572;2023-07-31T11:32:55;100250.94;;;19.39;78.27
48244;BME280;34053;51.088;6.572;2023-07-31T11:35:47;100242.75;;;19.42;77.85
48244;BME280;34053;51.088;6.572;2023-07-31T11:38:39;100252.72;;;19.52;78.45
48244;BME280;34053;51.088;6.572;2023-07-31T11:41:30;100248.97;;;19.54;78.42
48244;BME280;34053;51.088;6.572;2023-07-31T11:44:22;100244.84;;;19.50;77.69
48244;BME280;34053;51.088;6.572;2023-07-31T11:47:14;100265.41;;;19.48;78.01
48244;BME280;34053;51.088;6.572;2023-07-31T11:50:06;100250.22;;;19.61;77.58
48244;BME280;34053;51.088;6.572;2023-07-31T11:53:03;100249.09;;;19.53;77.08
48244;BME280;34053;51.088;6.572;2023-07-31T11:55:59;100255.84;;;19.45;77.40
48244;BME280;34053;51.088;6.572;2023-07-31T11:58:57;100242.84;;;19.41;77.64
48244;BME280;34053;51.088;6.572;2023-07-31T12:01:48;100256.78;;;19.44;77.38
48244;BME280;34053;51.088;6.572;2023-07-31T12:04:44;100250.59;;;19.44;78.02
48244;BME280;34053;51.088;6.572;2023-07-31T12:10:36;100249.91;;;19.29;81.27
48244;BME280;34053;51.088;6.572;2023-07-31T12:13:27;100248.22;;;19.28;81.30
48244;BME280;34053;51.088;6.572;2023-07-31T12:16:18;100248.22;;;19.28;81.48
48244;BME280;34053;51.088;6.572;2023-07-31T12:19:08;100255.84;;;19.32;81.41
48244;BME280;34053;51.088;6.572;2023-07-31T12:21:59;100252.16;;;19.22;82.15
48244;BME280;34053;51.088;6.572;2023-07-31T12:24:54;100253.81;;;19.36;82.25
48244;BME280;34053;51.088;6.572;2023-07-31T12:27:45;100247.34;;;19.27;83.58
48244;BME280;34053;51.088;6.572;2023-07-31T12:30:36;100238.16;;;19.44;83.58
48244;BME280;34053;51.088;6.572;2023-07-31T12:33:31;100236.00;;;19.49;83.68
48244;BME280;34053;51.088;6.572;2023-07-31T12:36:23;100226.50;;;19.21;84.38
48244;BME280;34053;51.088;6.572;2023-07-31T12:39:14;100230.59;;;19.38;82.97
48244;BME280;34053;51.088;6.572;2023-07-31T12:42:05;100226.00;;;19.53;81.05
48244;BME280;34053;51.088;6.572;2023-07-31T12:44:56;100227.25;;;19.60;80.86
48244;BME280;34053;51.088;6.572;2023-07-31T12:47:48;100219.25;;;19.60;79.17
48244;BME280;34053;51.088;6.572;2023-07-31T12:50:38;100217.56;;;19.59;78.38
48244;BME280;34053;51.088;6.572;2023-07-31T12:53:29;100215.31;;;19.66;77.77
48244;BME280;34053;51.088;6.572;2023-07-31T12:56:20;100206.53;;;19.77;77.30
48244;BME280;34053;51.088;6.572;2023-07-31T12:59:11;100206.88;;;19.72;77.51
48244;BME280;34053;51.088;6.572;2023-07-31T13:02:02;100201.50;;;19.61;77.24
48244;BME280;34053;51.088;6.572;2023-07-31T13:04:55;100184.66;;;19.60;76.47
48244;BME280;34053;51.088;6.572;2023-07-31T13:07:49;100179.41;;;19.47;76.96
48244;BME280;34053;51.088;6.572;2023-07-31T13:10:40;100173.13;;;19.73;76.20
48244;BME280;34053;51.088;6.572;2023-07-31T13:13:31;100146.13;;;19.66;75.42
48244;BME280;34053;51.088;6.572;2023-07-31T13:16:22;100160.75;;;19.85;75.84
48244;BME280;34053;51.088;6.572;2023-07-31T13:19:13;100150.25;;;19.94;75.00
48244;BME280;34053;51.088;6.572;2023-07-31T13:22:03;100140.25;;;20.21;74.88
48244;BME280;34053;51.088;6.572;2023-07-31T13:24:54;100153.38;;;20.35;74.57
48244;BME280;34053;51.088;6.572;2023-07-31T13:27:45;100142.72;;;20.35;73.03
48244;BME280;34053;51.088;6.572;2023-07-31T13:30:36;100148.50;;;20.29;73.24
48244;BME280;34053;51.088;6.572;2023-07-31T13:33:27;100126.13;;;20.54;73.35
48244;BME280;34053;51.088;6.572;2023-07-31T13:36:18;100131.97;;;20.48;71.98
48244;BME280;34053;51.088;6.572;2023-07-31T13:39:09;100129.91;;;20.52;72.42
48244;BME280;34053;51.088;6.572;2023-07-31T13:41:59;100131.63;;;20.75;72.09
48244;BME280;34053;51.088;6.572;2023-07-31T13:44:52;100125.06;;;20.80;71.44
48244;BME280;34053;51.088;6.572;2023-07-31T13:47:42;100134.41;;;20.85;71.47
48244;BME280;34053;51.088;6.572;2023-07-31T13:50:33;100151.38;;;20.73;71.15
48244;BME280;34053;51.088;6.572;2023-07-31T13:53:24;100160.16;;;20.62;71.14
48244;BME280;34053;51.088;6.572;2023-07-31T13:56:15;100160.41;;;20.36;71.61
48244;BME280;34053;51.088;6.572;2023-07-31T13:59:05;100158.59;;;20.48;71.44
48244;BME280;34053;51.088;6.572;2023-07-31T14:01:56;100167.19;;;20.40;71.50
48244;BME280;34053;51.088;6.572;2023-07-31T14:04:47;100170.81;;;20.39;71.67
48244;BME280;34053;51.088;6.572;2023-07-31T14:07:38;100171.41;;;20.43;70.92
48244;BME280;34053;51.088;6.572;2023-07-31T14:10:28;100167.06;;;20.31;71.47
48244;BME280;34053;51.088;6.572;2023-07-31T14:13:21;100161.13;;;20.27;72.39
48244;BME280;34053;51.088;6.572;2023-07-31T14:16:11;100160.72;;;20.20;72.18
48244;BME280;34053;51.088;6.572;2023-07-31T14:19:02;100144.53;;;20.23;71.87
48244;BME280;34053;51.088;6.572;2023-07-31T14:21:53;100143.13;;;20.06;71.60
48244;BME280;34053;51.088;6.572;2023-07-31T14:24:44;100136.22;;;20.04;71.75
48244;BME280;34053;51.088;6.572;2023-07-31T14:27:34;100134.66;;;20.12;71.94
48244;BME280;34053;51.088;6.572;2023-07-31T14:30:25;100125.00;;;20.23;71.55
48244;BME280;34053;51.088;6.572;2023-07-31T14:33:16;100123.31;;;20.22;71.74
48244;BME280;34053;51.088;6.572;2023-07-31T14:36:10;100118.59;;;20.25;72.02
48244;BME280;34053;51.088;6.572;2023-07-31T14:39:01;100114.00;;;20.27;71.65
48244;BME280;34053;51.088;6.572;2023-07-31T14:41:51;100111.94;;;20.20;70.85
48244;BME280;34053;51.088;6.572;2023-07-31T14:44:42;100097.41;;;20.24;71.26
48244;BME280;34053;51.088;6.572;2023-07-31T14:47:33;100080.94;;;20.30;71.11
48244;BME280;34053;51.088;6.572;2023-07-31T14:50:25;100092.22;;;20.22;70.58
48244;BME280;34053;51.088;6.572;2023-07-31T14:53:16;100103.44;;;20.15;70.62
48244;BME280;34053;51.088;6.572;2023-07-31T14:56:06;100102.72;;;20.12;70.84
48244;BME280;34053;51.088;6.572;2023-07-31T14:58:57;100112.03;;;20.18;70.73
48244;BME280;34053;51.088;6.572;2023-07-31T15:01:48;100116.88;;;20.13;71.49
48244;BME280;34053;51.088;6.572;2023-07-31T15:04:39;100109.53;;;20.28;71.20
48244;BME280;34053;51.088;6.572;2023-07-31T15:07:30;100090.38;;;20.23;70.62